Time;durP1;ratioP1;P1;durP2;ratioP2;P2;SDS_P1;SDS_P2;PMS_P1;PMS_P2;Temp;Humidity;BMP_temperature;BMP_pressure;BME280_temperature;BME280_humidity;BME280_pressure;Samples;Min_cycle;Max_cycle;Signal;HPM_P1;HPM_P2
2021/07/05 00:00:24;;;;;;;7.90;7.20;;;;;;;21.02;82.72;98429.98;1746947;81;21034;-65
2021/07/05 00:02:50;;;;;;;7.78;6.58;;;;;;;20.98;82.96;98436.59;1747015;82;22037;-64
2021/07/05 00:05:17;;;;;;;7.97;7.00;;;;;;;20.94;83.27;98436.06;1746875;82;21647;-64
2021/07/05 00:07:48;;;;;;;7.20;6.60;;;;;;;20.87;83.68;98432.36;1747030;82;21002;-64
2021/07/05 00:10:20;;;;;;;6.50;6.00;;;;;;;20.83;84.20;98433.65;1746950;82;20956;-65
2021/07/05 00:12:49;;;;;;;7.12;6.53;;;;;;;20.83;84.50;98427.05;1746811;82;21052;-65
2021/07/05 00:15:21;;;;;;;7.62;6.62;;;;;;;20.86;84.54;98431.20;1746897;82;21480;-65
2021/07/05 00:17:55;;;;;;;6.85;6.25;;;;;;;20.86;84.38;98435.16;1746892;82;20943;-65
2021/07/05 00:20:22;;;;;;;7.08;6.47;;;;;;;20.82;84.42;98429.34;1747034;82;21038;-65
2021/07/05 00:22:51;;;;;;;7.60;7.00;;;;;;;20.80;84.55;98427.83;1746935;82;21057;-65
2021/07/05 00:25:17;;;;;;;6.42;5.90;;;;;;;20.77;84.84;98429.00;1747029;82;20939;-65
2021/07/05 00:27:45;;;;;;;6.58;6.08;;;;;;;20.76;84.94;98420.73;1747217;82;21514;-65
2021/07/05 00:30:15;;;;;;;8.20;7.08;;;;;;;20.76;85.10;98422.05;1746858;82;21034;-65
2021/07/05 00:32:45;;;;;;;7.03;6.43;;;;;;;20.76;85.39;98434.44;1747214;82;21490;-65
2021/07/05 00:35:14;;;;;;;6.78;6.22;;;;;;;20.74;85.67;98420.54;1746872;82;21050;-65
2021/07/05 00:37:41;;;;;;;7.03;6.37;;;;;;;20.72;85.95;98428.62;1747050;80;20959;-65
2021/07/05 00:40:10;;;;;;;8.48;6.53;;;;;;;20.71;86.01;98432.24;1747113;82;21927;-65
2021/07/05 00:42:38;;;;;;;7.15;6.50;;;;;;;20.71;85.85;98434.88;1746944;82;20934;-65
2021/07/05 00:45:06;;;;;;;7.40;6.80;;;;;;;20.68;85.67;98431.71;1746961;82;20991;-65
2021/07/05 00:47:33;;;;;;;7.00;6.40;;;;;;;20.63;85.66;98435.63;1746869;82;21498;-65
2021/07/05 00:50:00;;;;;;;6.35;5.75;;;;;;;20.60;85.91;98434.61;1747024;82;20963;-65
2021/07/05 00:52:27;;;;;;;6.85;6.05;;;;;;;20.60;86.12;98431.97;1747091;82;21944;-65
2021/07/05 00:54:55;;;;;;;7.30;6.60;;;;;;;20.59;86.02;98436.91;1746849;82;21030;-65
2021/07/05 00:57:25;;;;;;;7.58;6.97;;;;;;;20.59;86.17;98437.41;1757414;80;21486;-65
2021/07/05 00:59:54;;;;;;;7.50;6.65;;;;;;;20.57;86.38;98441.55;1765430;81;20983;-65
2021/07/05 01:02:22;;;;;;;7.37;6.67;;;;;;;20.57;86.54;98436.75;1764980;81;20928;-65
2021/07/05 01:04:49;;;;;;;7.33;6.72;;;;;;;20.53;86.50;98432.25;1765398;81;21173;-65
2021/07/05 01:07:16;;;;;;;7.78;6.55;;;;;;;20.52;86.60;98439.01;1765575;81;20916;-65
2021/07/05 01:09:43;;;;;;;7.10;6.60;;;;;;;20.50;86.83;98439.16;1765463;81;20979;-65
2021/07/05 01:12:10;;;;;;;7.67;6.92;;;;;;;20.48;87.03;98431.87;1765494;81;20982;-65
2021/07/05 01:14:36;;;;;;;9.35;6.97;;;;;;;20.49;87.15;98429.57;1765559;81;20955;-65
2021/07/05 01:17:10;;;;;;;8.83;6.42;;;;;;;20.51;87.33;98428.10;1765591;81;21944;-65
2021/07/05 01:19:33;;;;;;;7.78;7.03;;;;;;;20.50;87.45;98418.52;1764626;81;21007;-65
2021/07/05 01:21:59;;;;;;;8.35;7.60;;;;;;;20.48;87.60;98417.34;1765391;81;20994;-65
2021/07/05 01:24:26;;;;;;;7.97;7.17;;;;;;;20.48;87.84;98419.98;1765419;81;20968;-65
2021/07/05 01:26:52;;;;;;;7.62;6.85;;;;;;;20.47;87.76;98419.64;1765691;81;21510;-65
2021/07/05 01:29:19;;;;;;;6.72;6.22;;;;;;;20.44;87.84;98416.47;1765334;81;21120;-65
2021/07/05 01:31:45;;;;;;;7.92;7.12;;;;;;;20.39;88.09;98418.73;1765294;81;20987;-65
2021/07/05 01:34:11;;;;;;;8.10;7.37;;;;;;;20.34;88.32;98413.89;1765431;81;21554;-65
2021/07/05 01:36:39;;;;;;;7.25;6.47;;;;;;;20.31;88.70;98423.42;1765455;81;20948;-65
2021/07/05 01:39:07;;;;;;;8.28;7.47;;;;;;;20.26;88.83;98419.08;1765501;81;20955;-65
2021/07/05 01:41:34;;;;;;;7.60;7.00;;;;;;;20.21;89.18;98419.52;1765463;81;21105;-65
2021/07/05 01:44:00;;;;;;;9.68;7.97;;;;;;;20.18;89.54;98429.58;1765256;81;21142;-65
2021/07/05 01:46:27;;;;;;;9.18;8.20;;;;;;;20.14;89.68;98425.56;1765732;81;20963;-65
2021/07/05 01:48:54;;;;;;;8.63;7.92;;;;;;;20.09;89.86;98432.61;1765373;81;20987;-65
2021/07/05 01:51:21;;;;;;;8.43;7.72;;;;;;;20.06;90.02;98422.83;1765389;81;21033;-65
2021/07/05 01:53:47;;;;;;;8.45;7.62;;;;;;;20.03;90.15;98425.77;1765440;81;21115;-64
2021/07/05 01:56:14;;;;;;;9.28;8.48;;;;;;;20.01;90.40;98435.14;1765277;81;21003;-65
2021/07/05 01:58:40;;;;;;;9.53;8.53;;;;;;;19.96;90.40;98421.58;1763122;80;20979;-65
2021/07/05 02:01:07;;;;;;;9.05;8.23;;;;;;;19.90;90.74;98431.41;1763283;81;20995;-65
2021/07/05 02:03:33;;;;;;;9.23;8.35;;;;;;;19.86;91.04;98431.34;1763412;81;21448;-65
2021/07/05 02:06:00;;;;;;;9.58;8.78;;;;;;;19.81;91.34;98434.42;1763238;81;21092;-64
2021/07/05 02:08:26;;;;;;;9.23;8.33;;;;;;;19.75;91.57;98431.56;1763240;81;20928;-65
2021/07/05 02:10:54;;;;;;;9.85;8.80;;;;;;;19.71;92.06;98438.09;1763194;81;20979;-65
2021/07/05 02:13:27;;;;;;;10.00;9.00;;;;;;;19.68;92.41;98439.70;1763630;81;20951;-65
2021/07/05 02:15:55;;;;;;;8.70;7.87;;;;;;;19.66;92.65;98439.02;1763475;81;21050;-65
2021/07/05 02:18:22;;;;;;;10.88;8.70;;;;;;;19.66;93.02;98442.97;1763216;81;23281;-65
2021/07/05 02:20:49;;;;;;;9.65;8.88;;;;;;;19.65;93.15;98437.35;1763093;81;20940;-65
2021/07/05 02:23:18;;;;;;;10.28;9.15;;;;;;;19.65;93.24;98442.62;1763507;81;21459;-65
2021/07/05 02:25:46;;;;;;;9.90;8.90;;;;;;;19.67;93.21;98440.68;1763202;81;21451;-65
2021/07/05 02:28:17;;;;;;;10.82;9.75;;;;;;;19.68;93.16;98445.81;1763197;81;21019;-65
2021/07/05 02:30:45;;;;;;;9.78;8.78;;;;;;;19.72;93.09;98442.40;1763230;81;21073;-65
2021/07/05 02:33:12;;;;;;;11.55;8.98;;;;;;;19.75;92.93;98438.98;1763110;81;21039;-65
2021/07/05 02:35:38;;;;;;;11.33;9.93;;;;;;;19.81;92.92;98439.70;1763431;81;21423;-65
2021/07/05 02:38:10;;;;;;;10.58;9.58;;;;;;;19.86;92.74;98440.09;1763148;81;21003;-65
2021/07/05 02:40:46;;;;;;;9.45;8.65;;;;;;;19.95;92.65;98442.36;1763588;81;20939;-65
2021/07/05 02:43:13;;;;;;;9.95;8.95;;;;;;;20.02;92.25;98443.41;1763157;81;21090;-65
2021/07/05 02:45:44;;;;;;;9.85;8.90;;;;;;;20.06;91.80;98437.34;1763051;81;20975;-65
2021/07/05 02:48:11;;;;;;;9.35;8.55;;;;;;;20.08;91.54;98441.50;1762210;81;20951;-65
2021/07/05 02:50:39;;;;;;;10.58;9.68;;;;;;;20.12;91.27;98440.72;1763148;81;20959;-65
2021/07/05 02:53:07;;;;;;;9.58;8.75;;;;;;;20.19;91.01;98441.77;1763188;81;37404;-65
2021/07/05 02:55:34;;;;;;;10.03;9.03;;;;;;;20.32;90.65;98440.10;1763116;81;21132;-65
2021/07/05 02:58:00;;;;;;;10.50;9.43;;;;;;;20.47;90.31;98434.17;1762997;81;21436;-65
2021/07/05 03:00:30;;;;;;;9.90;8.90;;;;;;;20.68;89.77;98435.19;1763226;81;20982;-65
2021/07/05 03:02:57;;;;;;;10.75;9.60;;;;;;;20.89;88.92;98440.14;1762828;81;20948;-65
2021/07/05 03:05:26;;;;;;;10.78;9.78;;;;;;;21.13;87.78;98436.85;1763613;81;21090;-65
2021/07/05 03:07:53;;;;;;;9.75;8.78;;;;;;;21.38;86.52;98436.55;1763545;81;21118;-65
2021/07/05 03:10:23;;;;;;;9.10;8.20;;;;;;;21.61;85.29;98446.41;1763256;81;20956;-65
2021/07/05 03:12:50;;;;;;;9.98;9.08;;;;;;;21.82;84.25;98447.33;1763479;81;20960;-65
2021/07/05 03:15:16;;;;;;;9.93;9.10;;;;;;;22.05;83.27;98446.78;1763191;81;21120;-65
2021/07/05 03:17:44;;;;;;;9.95;9.00;;;;;;;22.24;81.87;98445.17;1763402;81;21499;-65
2021/07/05 03:20:14;;;;;;;9.43;8.63;;;;;;;22.34;80.28;98447.20;1763255;81;21070;-65
2021/07/05 03:22:41;;;;;;;9.50;8.70;;;;;;;22.37;79.51;98445.55;1763101;81;21420;-65
2021/07/05 03:25:09;;;;;;;11.00;10.15;;;;;;;22.32;79.46;98456.63;1763211;81;20982;-65
2021/07/05 03:27:36;;;;;;;11.75;10.43;;;;;;;22.25;78.77;98454.78;1763620;81;21012;-65
2021/07/05 03:30:05;;;;;;;10.13;9.25;;;;;;;22.12;78.96;98457.08;1763355;81;21089;-65
2021/07/05 03:32:31;;;;;;;10.18;9.18;;;;;;;21.96;79.31;98463.95;1763360;81;21808;-65
2021/07/05 03:34:58;;;;;;;10.93;9.93;;;;;;;21.80;79.91;98463.86;1763235;81;20916;-65
2021/07/05 03:37:25;;;;;;;10.78;9.90;;;;;;;21.68;80.42;98469.11;1763425;81;21050;-65
2021/07/05 03:39:51;;;;;;;11.80;10.50;;;;;;;21.53;80.89;98466.72;1763215;81;20932;-65
2021/07/05 03:42:17;;;;;;;11.48;10.58;;;;;;;21.36;81.65;98462.33;1763165;81;20943;-65
2021/07/05 03:44:43;;;;;;;11.28;10.28;;;;;;;21.26;82.18;98471.17;1763132;81;21046;-65
2021/07/05 03:47:10;;;;;;;11.33;10.23;;;;;;;21.18;82.70;98462.34;1763139;81;21415;-65
2021/07/05 03:49:37;;;;;;;11.35;10.23;;;;;;;21.13;83.08;98468.09;1763234;81;20964;-65
2021/07/05 03:52:05;;;;;;;11.30;10.23;;;;;;;21.09;83.37;98460.13;1763322;81;21530;-65
2021/07/05 03:54:32;;;;;;;11.35;10.25;;;;;;;21.02;83.79;98453.78;1763227;81;21050;-65
2021/07/05 03:56:58;;;;;;;10.60;9.78;;;;;;;20.98;84.06;98448.48;1763368;81;21146;-65
2021/07/05 03:59:25;;;;;;;11.03;9.78;;;;;;;20.98;84.37;98453.25;1746980;81;20982;-65
2021/07/05 04:01:52;;;;;;;11.57;10.58;;;;;;;21.02;84.60;98448.98;1747225;82;21097;-65
2021/07/05 04:04:21;;;;;;;12.23;10.98;;;;;;;21.08;84.55;98447.88;1747032;82;20999;-65
2021/07/05 04:06:51;;;;;;;11.15;10.15;;;;;;;21.13;84.48;98445.61;1747030;82;21414;-65
2021/07/05 04:09:18;;;;;;;11.28;10.10;;;;;;;21.24;84.37;98449.34;1747158;82;21459;-65
2021/07/05 04:11:44;;;;;;;12.58;10.93;;;;;;;21.37;83.95;98441.01;1747218;82;21003;-65
2021/07/05 04:14:10;;;;;;;12.53;11.38;;;;;;;21.46;83.64;98444.02;1746905;82;21018;-65
2021/07/05 04:16:37;;;;;;;12.20;11.12;;;;;;;21.51;83.46;98436.94;1747232;82;21415;-65
2021/07/05 04:19:03;;;;;;;11.80;10.53;;;;;;;21.57;83.23;98433.67;1747057;82;21034;-65
2021/07/05 04:21:30;;;;;;;16.27;11.70;;;;;;;21.63;83.08;98433.84;1746911;82;21124;-65
2021/07/05 04:23:56;;;;;;;12.37;11.18;;;;;;;21.73;82.92;98431.59;1746975;82;20982;-64
2021/07/05 04:26:23;;;;;;;12.93;11.73;;;;;;;21.79;82.55;98434.89;1746872;82;21069;-65
2021/07/05 04:28:50;;;;;;;13.00;11.90;;;;;;;21.80;82.16;98428.62;1747221;82;21407;-65
2021/07/05 04:31:17;;;;;;;12.75;11.55;;;;;;;21.84;82.15;98425.50;1746957;82;20946;-65
2021/07/05 04:33:43;;;;;;;13.58;10.48;;;;;;;22.03;81.79;98423.60;1746998;82;21095;-65
2021/07/05 04:36:10;;;;;;;13.28;11.08;;;;;;;22.23;81.05;98420.51;1746829;82;20943;-65
2021/07/05 04:38:36;;;;;;;12.75;11.65;;;;;;;22.39;80.59;98413.57;1747016;82;21531;-64
2021/07/05 04:41:04;;;;;;;12.95;11.65;;;;;;;22.55;79.95;98421.56;1746940;82;20994;-64
2021/07/05 04:43:31;;;;;;;13.58;11.83;;;;;;;22.71;79.35;98419.41;1747043;82;20943;-64
2021/07/05 04:46:03;;;;;;;12.93;11.40;;;;;;;22.87;78.56;98421.58;1746871;82;23167;-64
2021/07/05 04:48:26;;;;;;;13.22;11.50;;;;;;;23.00;78.20;98409.13;1746301;82;20985;-64
2021/07/05 04:50:53;;;;;;;20.65;14.30;;;;;;;23.13;77.62;98418.74;1746936;80;21017;-64
2021/07/05 04:53:19;;;;;;;12.93;11.63;;;;;;;23.32;77.28;98416.22;1746959;82;21120;-65
2021/07/05 04:55:45;;;;;;;12.93;11.60;;;;;;;23.57;76.29;98409.88;1746792;82;21456;-65
2021/07/05 04:58:12;;;;;;;12.40;11.30;;;;;;;23.81;75.23;98414.23;1752411;81;21140;-65
2021/07/05 05:00:38;;;;;;;13.98;10.10;;;;;;;24.12;73.86;98412.92;1754906;80;21070;-65
2021/07/05 05:03:05;;;;;;;11.57;10.48;;;;;;;24.57;73.15;98410.00;1748098;81;21039;-65
2021/07/05 05:05:33;;;;;;;12.50;10.88;;;;;;;25.15;70.99;98408.52;1749914;82;21015;-65
2021/07/05 05:07:59;;;;;;;12.40;11.12;;;;;;;25.67;68.40;98412.45;1750683;81;20996;-65
2021/07/05 05:10:28;;;;;;;11.97;10.82;;;;;;;26.08;66.01;98412.24;1750568;82;21141;-65
2021/07/05 05:12:55;;;;;;;11.60;10.50;;;;;;;26.45;64.88;98417.07;1750969;81;20984;-65
2021/07/05 05:15:21;;;;;;;11.00;9.90;;;;;;;26.79;62.97;98408.34;1750686;81;20941;-66
2021/07/05 05:17:48;;;;;;;10.88;10.00;;;;;;;27.06;62.68;98408.09;1750870;82;20957;-65
2021/07/05 05:20:17;;;;;;;11.70;10.50;;;;;;;27.31;62.18;98412.48;1750610;81;20933;-65
2021/07/05 05:22:45;;;;;;;11.90;10.85;;;;;;;27.52;60.67;98405.72;1750563;81;20985;-64
2021/07/05 05:25:12;;;;;;;11.73;10.55;;;;;;;27.65;60.31;98401.80;1750521;82;21008;-65
2021/07/05 05:27:39;;;;;;;12.03;10.93;;;;;;;27.74;59.87;98399.80;1750718;81;20941;-65
2021/07/05 05:30:08;;;;;;;11.78;10.68;;;;;;;27.72;59.87;98398.66;1750554;81;21000;-65
2021/07/05 05:32:34;;;;;;;16.67;10.70;;;;;;;27.66;60.03;98393.28;1751256;81;21051;-65
2021/07/05 05:35:02;;;;;;;11.68;10.48;;;;;;;27.53;60.27;98396.69;1750643;81;21764;-65
2021/07/05 05:37:29;;;;;;;11.57;10.58;;;;;;;27.46;60.13;98405.16;1750471;82;20945;-65
2021/07/05 05:39:55;;;;;;;13.13;11.20;;;;;;;27.32;60.49;98404.78;1750791;81;21032;-65
2021/07/05 05:42:22;;;;;;;14.87;10.35;;;;;;;27.17;61.21;98406.74;1750583;81;20952;-66
2021/07/05 05:44:48;;;;;;;14.35;10.50;;;;;;;27.12;61.52;98415.84;1750450;81;20992;-65
2021/07/05 05:47:16;;;;;;;12.15;10.60;;;;;;;27.12;61.17;98413.99;1750476;82;21053;-65
2021/07/05 05:49:43;;;;;;;11.60;10.70;;;;;;;27.06;61.46;98414.25;1750474;82;21040;-65
2021/07/05 05:52:09;;;;;;;11.45;10.45;;;;;;;26.97;61.76;98406.59;1750517;81;21008;-63
2021/07/05 05:54:37;;;;;;;11.10;10.08;;;;;;;26.81;61.79;98406.31;1750521;80;21028;-66
2021/07/05 05:57:04;;;;;;;11.12;10.03;;;;;;;26.80;62.48;98410.50;1750415;81;21153;-67
2021/07/05 05:59:33;;;;;;;10.90;9.83;;;;;;;26.89;62.46;98416.03;1756128;81;21281;-65
2021/07/05 06:01:59;;;;;;;12.98;9.70;;;;;;;26.91;62.64;98414.83;1758300;81;21412;-65
2021/07/05 06:04:25;;;;;;;12.47;11.35;;;;;;;27.00;61.75;98423.53;1758291;81;20992;-66
2021/07/05 06:06:53;;;;;;;12.28;9.78;;;;;;;27.13;61.74;98418.31;1758350;81;21109;-66
2021/07/05 06:09:21;;;;;;;13.15;10.08;;;;;;;27.38;61.32;98421.33;1758304;81;20957;-65
2021/07/05 06:11:48;;;;;;;10.10;9.33;;;;;;;27.63;60.09;98421.72;1758246;81;21220;-64
2021/07/05 06:14:14;;;;;;;11.38;10.25;;;;;;;27.81;59.20;98423.34;1758280;81;21055;-64
2021/07/05 06:16:42;;;;;;;11.33;9.95;;;;;;;27.90;59.06;98414.66;1758257;81;21538;-65
2021/07/05 06:19:08;;;;;;;11.33;10.23;;;;;;;27.96;58.52;98413.36;1758350;81;21004;-65
2021/07/05 06:21:35;;;;;;;10.20;9.30;;;;;;;28.06;58.89;98409.78;1758528;81;21007;-65
2021/07/05 06:24:02;;;;;;;11.43;9.70;;;;;;;28.25;58.72;98410.07;1758408;81;21530;-65
2021/07/05 06:26:29;;;;;;;10.65;9.75;;;;;;;28.39;58.36;98415.23;1758227;81;20976;-65
2021/07/05 06:28:55;;;;;;;10.23;9.35;;;;;;;28.45;57.70;98410.42;1758245;81;20984;-67
2021/07/05 06:31:21;;;;;;;11.55;9.55;;;;;;;28.42;57.40;98410.83;1758196;81;20940;-65
2021/07/05 06:33:48;;;;;;;10.15;9.15;;;;;;;28.41;57.95;98406.50;1758374;81;20944;-64
2021/07/05 06:36:15;;;;;;;11.20;9.85;;;;;;;28.56;57.91;98403.67;1758262;81;21212;-65
2021/07/05 06:38:42;;;;;;;9.93;9.10;;;;;;;28.66;57.26;98405.41;1758162;81;21045;-65
2021/07/05 06:41:09;;;;;;;10.38;9.38;;;;;;;28.70;57.32;98403.98;1758500;81;20960;-64
2021/07/05 06:43:36;;;;;;;11.57;10.48;;;;;;;28.70;56.99;98399.14;1758221;81;21004;-66
2021/07/05 06:46:02;;;;;;;10.23;9.43;;;;;;;28.65;57.19;98395.73;1758495;81;21479;-65
2021/07/05 06:48:29;;;;;;;13.48;10.15;;;;;;;28.60;57.94;98396.03;1758220;81;21140;-64
2021/07/05 06:50:55;;;;;;;11.57;9.55;;;;;;;28.64;57.87;98403.96;1758241;81;21048;-65
2021/07/05 06:53:22;;;;;;;11.15;9.88;;;;;;;28.70;57.27;98393.79;1758332;81;21409;-64
2021/07/05 06:55:49;;;;;;;9.85;8.85;;;;;;;28.70;57.14;98400.48;1758295;81;20937;-66
2021/07/05 06:58:16;;;;;;;11.68;9.20;;;;;;;28.57;57.54;98399.97;1758229;81;21059;-66
2021/07/05 07:00:42;;;;;;;9.83;8.93;;;;;;;28.36;57.70;98399.63;1758399;81;21559;-65
2021/07/05 07:03:09;;;;;;;10.88;9.88;;;;;;;28.23;58.25;98405.44;1758231;80;20964;-65
2021/07/05 07:05:35;;;;;;;10.03;8.95;;;;;;;28.04;58.85;98406.48;1758077;81;21173;-66
2021/07/05 07:08:02;;;;;;;9.53;8.68;;;;;;;27.87;59.61;98405.19;1757263;80;20984;-65
2021/07/05 07:10:28;;;;;;;9.13;8.43;;;;;;;27.75;59.80;98401.45;1757270;81;21094;-65
2021/07/05 07:12:55;;;;;;;9.20;8.40;;;;;;;27.62;60.54;98403.53;1757420;81;21429;-66
2021/07/05 07:15:32;;;;;;;10.20;8.88;;;;;;;27.60;60.83;98400.23;1757640;81;21003;-66
2021/07/05 07:18:03;;;;;;;10.18;8.90;;;;;;;27.57;60.74;98399.31;1756837;81;21015;-65
2021/07/05 07:20:27;;;;;;;8.63;7.80;;;;;;;27.55;61.01;98408.00;1757395;81;20988;-65
2021/07/05 07:22:53;;;;;;;9.95;8.70;;;;;;;27.59;60.89;98401.77;1758242;81;21016;-65
2021/07/05 07:25:20;;;;;;;15.70;9.38;;;;;;;27.60;61.18;98408.75;1758239;81;21401;-66
2021/07/05 07:27:46;;;;;;;9.38;8.43;;;;;;;27.64;61.24;98402.00;1758251;81;21032;-65
2021/07/05 07:30:14;;;;;;;8.75;8.05;;;;;;;27.69;61.31;98399.56;1759039;81;21079;-65
2021/07/05 07:32:42;;;;;;;7.97;7.37;;;;;;;27.78;61.24;98403.70;1758405;81;20944;-66
2021/07/05 07:35:11;;;;;;;9.80;8.00;;;;;;;27.88;59.72;98403.34;1758470;81;20924;-66
2021/07/05 07:37:38;;;;;;;11.93;8.55;;;;;;;27.92;59.90;98398.75;1758409;81;21086;-66
2021/07/05 07:40:19;;;;;;;8.63;7.90;;;;;;;27.96;60.31;98401.84;1758395;81;21484;-66
2021/07/05 07:42:44;;;;;;;9.43;8.73;;;;;;;28.01;60.95;98400.20;1758555;81;21004;-65
2021/07/05 07:45:12;;;;;;;10.03;8.50;;;;;;;28.10;59.76;98400.86;1758338;81;20972;-65
2021/07/05 07:47:39;;;;;;;13.20;8.93;;;;;;;28.12;59.98;98392.95;1758578;81;20988;-66
2021/07/05 07:50:07;;;;;;;13.83;8.10;;;;;;;28.18;60.27;98395.85;1758482;81;21138;-65
2021/07/05 07:52:34;;;;;;;9.35;8.45;;;;;;;28.25;60.72;98402.88;1758609;81;21551;-66
2021/07/05 07:55:02;;;;;;;8.88;8.05;;;;;;;28.35;60.07;98393.97;1758595;81;21538;-66
2021/07/05 07:57:28;;;;;;;8.03;7.25;;;;;;;28.54;59.10;98412.92;1758626;81;20960;-65
2021/07/05 07:59:55;;;;;;;8.50;6.95;;;;;;;28.63;57.87;98417.86;1758343;81;21483;-66
2021/07/05 08:02:21;;;;;;;11.33;7.40;;;;;;;28.61;57.32;98413.22;1758395;81;23304;-65
2021/07/05 08:04:49;;;;;;;7.55;6.85;;;;;;;28.52;57.04;98414.45;1758404;81;20873;-66
2021/07/05 08:07:17;;;;;;;9.15;6.92;;;;;;;28.36;57.76;98408.98;1758425;81;21515;-65
2021/07/05 08:09:44;;;;;;;10.53;7.95;;;;;;;28.30;57.06;98423.67;1758675;81;21407;-66
2021/07/05 08:12:11;;;;;;;8.45;7.28;;;;;;;28.24;58.02;98419.94;1758470;81;20994;-67
2021/07/05 08:14:38;;;;;;;7.60;6.75;;;;;;;28.26;58.41;98411.72;1758616;81;21101;-66
2021/07/05 08:17:06;;;;;;;8.10;7.40;;;;;;;28.35;58.15;98419.38;1758521;81;21040;-63
2021/07/05 08:19:33;;;;;;;9.78;6.95;;;;;;;28.51;58.57;98413.32;1758701;81;21090;-65
2021/07/05 08:21:59;;;;;;;10.68;6.97;;;;;;;28.56;56.72;98421.56;1758594;80;21031;-64
2021/07/05 08:24:25;;;;;;;8.33;7.72;;;;;;;28.51;56.78;98423.51;1758443;80;21055;-66
2021/07/05 08:26:52;;;;;;;8.38;7.55;;;;;;;28.40;57.66;98416.89;1758780;81;21266;-65
2021/07/05 08:29:18;;;;;;;9.78;7.60;;;;;;;28.31;57.47;98419.45;1758402;81;21404;-66
2021/07/05 08:31:45;;;;;;;11.75;7.80;;;;;;;28.24;57.09;98423.13;1758307;81;20980;-64
2021/07/05 08:34:11;;;;;;;8.50;7.45;;;;;;;28.12;57.76;98420.19;1758396;81;20983;-65
2021/07/05 08:36:40;;;;;;;8.65;7.95;;;;;;;28.07;58.54;98419.45;1758354;81;21371;-65
2021/07/05 08:39:09;;;;;;;8.65;7.85;;;;;;;28.07;59.37;98412.77;1758679;81;21888;-64
2021/07/05 08:41:36;;;;;;;7.65;7.03;;;;;;;28.06;58.46;98418.31;1758335;81;21460;-65
2021/07/05 08:44:05;;;;;;;8.20;7.40;;;;;;;28.02;58.36;98419.73;1758253;81;21102;-65
2021/07/05 08:46:32;;;;;;;9.00;7.85;;;;;;;28.02;59.30;98414.39;1758414;81;20957;-64
2021/07/05 08:48:59;;;;;;;7.95;7.15;;;;;;;28.08;58.37;98423.78;1758392;81;20932;-64
2021/07/05 08:51:25;;;;;;;8.18;7.40;;;;;;;28.16;57.43;98413.94;1758382;81;21594;-65
2021/07/05 08:53:52;;;;;;;7.85;7.25;;;;;;;28.18;58.07;98414.56;1758523;81;20976;-65
2021/07/05 08:56:20;;;;;;;7.50;6.78;;;;;;;28.20;57.04;98429.90;1758634;81;20964;-66
2021/07/05 08:58:47;;;;;;;7.60;6.95;;;;;;;28.19;57.69;98421.53;1758232;81;20992;-65
2021/07/05 09:01:15;;;;;;;8.75;7.30;;;;;;;28.18;57.97;98423.92;1758273;81;21107;-64
2021/07/05 09:03:42;;;;;;;7.45;6.85;;;;;;;28.20;57.44;98424.55;1758287;81;21093;-65
2021/07/05 09:06:22;;;;;;;6.70;6.03;;;;;;;28.17;56.24;98424.44;1758326;81;20961;-65
2021/07/05 09:09:04;;;;;;;7.10;6.35;;;;;;;28.25;56.65;98416.24;1758462;81;20961;-66
2021/07/05 09:11:48;;;;;;;8.33;6.83;;;;;;;28.36;56.37;98412.17;1758963;81;21417;-65
2021/07/05 09:14:19;;;;;;;7.12;6.42;;;;;;;28.45;56.63;98417.63;1758465;81;20956;-66
2021/07/05 09:16:48;;;;;;;7.40;6.45;;;;;;;28.52;55.66;98418.47;1758859;81;21023;-65
2021/07/05 09:19:22;;;;;;;7.25;6.62;;;;;;;28.55;54.47;98414.05;1758262;81;20996;-66
2021/07/05 09:21:58;;;;;;;7.92;6.55;;;;;;;28.58;54.38;98424.87;1758820;81;21425;-66
2021/07/05 09:24:28;;;;;;;7.40;6.67;;;;;;;28.61;55.25;98414.55;1758382;81;21004;-66
2021/07/05 09:27:20;;;;;;;8.30;5.67;;;;;;;28.75;56.35;98414.90;1758364;81;20976;-65
2021/07/05 09:29:48;;;;;;;6.58;5.22;;;;;;;28.93;54.77;98419.66;1758524;81;21102;-65
2021/07/05 09:32:26;;;;;;;8.90;5.90;;;;;;;29.04;52.07;98414.19;1758333;80;21476;-65
2021/07/05 09:34:53;;;;;;;6.03;5.47;;;;;;;29.10;53.13;98407.50;1758640;81;21332;-65
2021/07/05 09:37:26;;;;;;;6.05;5.42;;;;;;;29.18;51.91;98409.13;1758310;81;20984;-67
2021/07/05 09:40:07;;;;;;;6.25;5.75;;;;;;;29.23;51.90;98405.31;1758716;81;20924;-66
2021/07/05 09:42:38;;;;;;;6.35;5.85;;;;;;;29.27;52.31;98418.59;1758404;81;21129;-65
2021/07/05 09:45:18;;;;;;;6.12;5.55;;;;;;;29.30;51.99;98401.30;1758404;81;20999;-65
2021/07/05 09:47:44;;;;;;;6.67;5.55;;;;;;;29.34;52.40;98402.02;1757306;81;21059;-65
2021/07/05 09:50:21;;;;;;;6.60;6.00;;;;;;;29.38;52.26;98402.39;1758392;81;20988;-64
2021/07/05 09:52:46;;;;;;;6.35;5.90;;;;;;;29.40;52.42;98407.05;1757202;81;21040;-65
2021/07/05 09:55:15;;;;;;;6.62;6.00;;;;;;;29.33;52.20;98404.90;1758267;81;23263;-65
2021/07/05 09:57:51;;;;;;;6.95;6.20;;;;;;;29.24;52.78;98403.45;1758285;81;21460;-65
2021/07/05 10:00:26;;;;;;;6.22;5.72;;;;;;;29.12;51.85;98400.09;1758389;81;21444;-65
2021/07/05 10:03:01;;;;;;;5.62;4.92;;;;;;;29.00;52.68;98401.73;1758380;81;20952;-64
2021/07/05 10:05:34;;;;;;;6.35;5.75;;;;;;;29.05;52.86;98400.59;1758415;81;20956;-65
2021/07/05 10:08:14;;;;;;;;;;;;;;;29.20;51.57;98400.88;1760782;81;21145;-66
2021/07/05 10:10:44;;;;;;;6.90;6.15;;;;;;;29.28;51.11;98399.34;1758298;81;21688;-65
2021/07/05 10:13:20;;;;;;;9.18;6.50;;;;;;;29.34;51.64;98398.51;1758525;81;20937;-65
2021/07/05 10:15:49;;;;;;;7.17;6.47;;;;;;;29.42;52.00;98402.31;1758282;81;20957;-65
2021/07/05 10:18:16;;;;;;;7.37;6.47;;;;;;;29.50;51.41;98403.95;1758260;81;20979;-65
2021/07/05 10:20:44;;;;;;;9.78;6.12;;;;;;;29.48;51.48;98396.95;1758195;81;23233;-66
2021/07/05 10:23:15;;;;;;;7.40;6.70;;;;;;;29.49;52.04;98400.45;1758198;81;20956;-65
2021/07/05 10:25:45;;;;;;;7.00;6.12;;;;;;;29.56;51.00;98400.45;1739429;82;20992;-65
2021/07/05 10:28:11;;;;;;;6.55;5.62;;;;;;;29.56;50.95;98396.42;1739361;82;21035;-65
2021/07/05 10:30:38;;;;;;;6.95;5.40;;;;;;;29.55;49.93;98396.12;1728741;82;21001;-65
2021/07/05 10:33:04;;;;;;;6.62;5.00;;;;;;;29.59;49.80;98397.31;1717426;83;23465;-65
2021/07/05 10:35:39;;;;;;;6.00;5.40;;;;;;;29.58;50.01;98384.44;1717356;83;20925;-65
2021/07/05 10:38:36;;;;;;;5.12;4.62;;;;;;;29.59;50.07;98389.28;1718233;83;21005;-65
2021/07/05 10:41:14;;;;;;;5.85;5.25;;;;;;;29.60;50.90;98386.39;1718237;83;20976;-65
2021/07/05 10:43:58;;;;;;;6.22;5.55;;;;;;;29.62;50.22;98388.86;1718574;83;21118;-65
2021/07/05 10:46:45;;;;;;;8.38;5.28;;;;;;;29.58;51.05;98380.94;1718610;83;21299;-65
2021/07/05 10:49:36;;;;;;;6.90;4.78;;;;;;;29.62;50.43;98382.16;1721319;81;20944;-65
2021/07/05 10:52:12;;;;;;;6.80;4.80;;;;;;;29.69;50.31;98394.52;1771179;81;21110;-65
2021/07/05 10:54:58;;;;;;;7.67;5.50;;;;;;;29.69;50.22;98389.67;1771128;81;21474;-65
2021/07/05 10:57:39;;;;;;;8.08;5.35;;;;;;;29.67;49.93;98383.70;1771189;81;20998;-66
2021/07/05 11:00:16;;;;;;;6.20;5.50;;;;;;;29.74;50.70;98390.69;1761763;81;22004;-65
2021/07/05 11:02:43;;;;;;;10.72;5.72;;;;;;;29.85;49.86;98389.70;1744064;82;20943;-65
2021/07/05 11:05:41;;;;;;;6.35;5.40;;;;;;;29.91;49.10;98390.20;1746759;82;21119;-65
2021/07/05 11:08:44;;;;;;;6.42;5.78;;;;;;;29.90;49.43;98387.22;1724832;82;20995;-66
2021/07/05 11:11:26;;;;;;;9.35;5.50;;;;;;;29.90;48.84;98383.20;1746995;82;21440;-65
2021/07/05 11:14:19;;;;;;;6.83;4.85;;;;;;;29.98;49.02;98373.06;1747161;82;21062;-65
2021/07/05 11:16:59;;;;;;;7.90;4.70;;;;;;;30.02;49.00;98386.87;1724403;82;20946;-64
2021/07/05 11:19:51;;;;;;;6.00;5.05;;;;;;;29.91;48.17;98378.96;1730481;82;21010;-65
2021/07/05 11:22:27;;;;;;;;;;;;;;;29.78;48.43;98373.12;1719645;83;20998;-64
2021/07/05 11:25:21;;;;;;;5.92;4.40;;;;;;;29.71;47.55;98372.87;1717420;82;20157;-64
2021/07/05 11:28:01;;;;;;;5.75;4.40;;;;;;;29.67;47.86;98372.98;1717104;83;21230;-66
2021/07/05 11:30:41;;;;;;;6.17;4.03;;;;;;;29.58;47.46;98377.73;1717193;83;21462;-64
2021/07/05 11:33:19;;;;;;;6.33;4.33;;;;;;;29.52;47.58;98375.10;1717100;83;21422;-64
2021/07/05 11:36:00;;;;;;;4.80;4.37;;;;;;;29.51;48.17;98376.95;1717242;82;21105;-65
2021/07/05 11:38:42;;;;;;;4.08;3.72;;;;;;;29.54;47.31;98376.54;1717101;83;20989;-68